HAZ2104 ZWSH-ZSHC
Flight info
| Callsign | HAZ2104 |
|---|---|
| Flight time | N/A |
| Altitude | 39100 |
| Route | MAGIV6Z MAGIV W187 TUSLI W112 VIKUP W191 DNC W565 BIGUX W214 HO H14 P396 H131 ATGEN W283 SUDGO H132 P234 H36 SNF W269 OLPOV B213 WHA R343 SAGUD W50 XSH H17 JDZ H26 TXN G204 OREXA OREXA91 |
| Aircraft | A359/H-SDE2E3GHIJ3J4J5LM1ORWXY/LB1D1 |
Departure
| Time | 2026-05-05 10:02 |
|---|---|
| Airport | Kashgar Laining International Airport (ZWSH) |
Arrival
| Time | N/A |
|---|---|
| Airport | Hangzhou Xiaoshan International Airport (ZSHC) |
| Time | Latitude | Longitude | Altitude | Speed | Heading |
|---|---|---|---|---|---|
| 2026-05-05 09:44 | 39.53752 | 76.00829 | 4529 ft | 0 kts | 175° |
| 2026-05-05 09:50 | 39.53763 | 76.00828 | 4525 ft | 4 kts | 175° |
| 2026-05-05 09:50 | 39.53789 | 76.00825 | 4524 ft | 3 kts | 175° |
| 2026-05-05 09:50 | 39.53811 | 76.00822 | 4525 ft | 4 kts | 159° |
| 2026-05-05 09:51 | 39.53829 | 76.00808 | 4526 ft | 4 kts | 124° |
| 2026-05-05 09:51 | 39.53838 | 76.00782 | 4525 ft | 4 kts | 92° |
| 2026-05-05 09:51 | 39.53838 | 76.00752 | 4524 ft | 1 kts | 86° |
| 2026-05-05 09:54 | 39.53838 | 76.00757 | 4528 ft | 2 kts | 86° |
| 2026-05-05 09:55 | 39.53840 | 76.00798 | 4528 ft | 8 kts | 87° |
| 2026-05-05 09:55 | 39.53845 | 76.00891 | 4525 ft | 14 kts | 86° |
| 2026-05-05 09:55 | 39.53853 | 76.01041 | 4527 ft | 19 kts | 85° |
| 2026-05-05 09:55 | 39.53865 | 76.01235 | 4528 ft | 24 kts | 85° |
| 2026-05-05 09:56 | 39.53888 | 76.01417 | 4525 ft | 14 kts | 52° |
| 2026-05-05 09:56 | 39.53935 | 76.01426 | 4526 ft | 6 kts | 338° |
| 2026-05-05 09:56 | 39.53990 | 76.01416 | 4525 ft | 10 kts | 356° |
| 2026-05-05 09:56 | 39.54073 | 76.01409 | 4525 ft | 15 kts | 356° |
| 2026-05-05 09:57 | 39.54181 | 76.01416 | 4525 ft | 14 kts | 36° |
| 2026-05-05 09:57 | 39.54216 | 76.01539 | 4526 ft | 17 kts | 85° |
| 2026-05-05 09:57 | 39.54227 | 76.01715 | 4530 ft | 22 kts | 87° |
| 2026-05-05 09:57 | 39.54237 | 76.01934 | 4530 ft | 26 kts | 86° |
| 2026-05-05 09:58 | 39.54251 | 76.02189 | 4528 ft | 31 kts | 86° |
| 2026-05-05 09:58 | 39.54268 | 76.02489 | 4527 ft | 35 kts | 86° |
| 2026-05-05 09:58 | 39.54286 | 76.02823 | 4528 ft | 38 kts | 86° |
| 2026-05-05 09:58 | 39.54300 | 76.03094 | 4527 ft | 17 kts | 86° |
| 2026-05-05 09:59 | 39.54309 | 76.03263 | 4530 ft | 21 kts | 86° |
| 2026-05-05 09:59 | 39.54321 | 76.03472 | 4527 ft | 26 kts | 86° |
| 2026-05-05 09:59 | 39.54330 | 76.03688 | 4528 ft | 17 kts | 97° |
| 2026-05-05 09:59 | 39.54298 | 76.03797 | 4528 ft | 8 kts | 90° |
| 2026-05-05 10:00 | 39.54312 | 76.03811 | 4528 ft | 1 kts | 2° |
| 2026-05-05 10:00 | 39.54319 | 76.03807 | 4528 ft | 2 kts | 344° |
| 2026-05-05 10:00 | 39.54324 | 76.03797 | 4528 ft | 1 kts | 306° |
| 2026-05-05 10:00 | 39.54330 | 76.03781 | 4528 ft | 4 kts | 297° |
| 2026-05-05 10:01 | 39.54335 | 76.03733 | 4527 ft | 7 kts | 268° |
| 2026-05-05 10:01 | 39.54331 | 76.03646 | 4528 ft | 12 kts | 267° |
| 2026-05-05 10:01 | 39.54323 | 76.03510 | 4527 ft | 23 kts | 265° |
| 2026-05-05 10:01 | 39.54296 | 76.03016 | 4525 ft | 87 kts | 266° |
| 2026-05-05 10:02 | 39.54240 | 76.01973 | 4527 ft | 143 kts | 266° |
| 2026-05-05 10:02 | 39.54156 | 76.00537 | 4869 ft | 160 kts | 267° |
| 2026-05-05 10:02 | 39.54070 | 75.99135 | 5625 ft | 158 kts | 267° |
| 2026-05-05 10:02 | 39.53990 | 75.97698 | 6217 ft | 160 kts | 269° |
| 2026-05-05 10:03 | 39.53917 | 75.96262 | 6675 ft | 164 kts | 270° |
| 2026-05-05 10:03 | 39.53838 | 75.94766 | 7075 ft | 167 kts | 270° |
| 2026-05-05 10:03 | 39.53781 | 75.93745 | 7351 ft | 168 kts | 270° |
| 2026-05-05 10:03 | 39.53675 | 75.91748 | 7973 ft | 172 kts | 271° |
| 2026-05-05 10:04 | 39.53600 | 75.90130 | 8237 ft | 190 kts | 270° |
| 2026-05-05 10:04 | 39.53540 | 75.88954 | 8422 ft | 202 kts | 270° |
| 2026-05-05 10:04 | 39.53432 | 75.87024 | 8727 ft | 221 kts | 270° |
| 2026-05-05 10:04 | 39.53132 | 75.84989 | 8952 ft | 249 kts | 250° |
| 2026-05-05 10:05 | 39.51406 | 75.82837 | 9628 ft | 277 kts | 204° |
| 2026-05-05 10:05 | 39.50148 | 75.82505 | 10078 ft | 283 kts | 183° |
| 2026-05-05 10:05 | 39.48172 | 75.82723 | 10818 ft | 287 kts | 174° |
| 2026-05-05 10:05 | 39.46184 | 75.83131 | 11527 ft | 292 kts | 168° |
| 2026-05-05 10:06 | 39.44267 | 75.84036 | 12207 ft | 297 kts | 150° |
| 2026-05-05 10:06 | 39.42664 | 75.85698 | 12890 ft | 300 kts | 130° |
| 2026-05-05 10:06 | 39.41563 | 75.88061 | 13259 ft | 314 kts | 107° |
| 2026-05-05 10:06 | 39.40981 | 75.90849 | 13630 ft | 329 kts | 100° |
| 2026-05-05 10:07 | 39.40497 | 75.93818 | 13955 ft | 346 kts | 99° |
| 2026-05-05 10:07 | 39.39994 | 75.96932 | 14270 ft | 362 kts | 99° |
| 2026-05-05 10:07 | 39.39454 | 76.00187 | 14584 ft | 377 kts | 100° |
| 2026-05-05 10:07 | 39.38877 | 76.03550 | 14884 ft | 391 kts | 101° |
| 2026-05-05 10:08 | 39.38267 | 76.07021 | 15285 ft | 399 kts | 101° |
| 2026-05-05 10:08 | 39.37638 | 76.10537 | 15862 ft | 403 kts | 102° |
| 2026-05-05 10:08 | 39.37003 | 76.14077 | 16507 ft | 405 kts | 102° |
| 2026-05-05 10:08 | 39.36364 | 76.17629 | 17168 ft | 407 kts | 102° |
| 2026-05-05 10:09 | 39.35721 | 76.21195 | 17855 ft | 409 kts | 102° |
| 2026-05-05 10:09 | 39.35074 | 76.24784 | 18460 ft | 411 kts | 103° |
| 2026-05-05 10:09 | 39.34421 | 76.28400 | 18994 ft | 415 kts | 103° |
| 2026-05-05 10:09 | 39.33680 | 76.32007 | 19495 ft | 418 kts | 108° |
| 2026-05-05 10:10 | 39.32561 | 76.35503 | 20011 ft | 422 kts | 117° |
| 2026-05-05 10:10 | 39.30999 | 76.38706 | 20532 ft | 425 kts | 127° |
| 2026-05-05 10:10 | 39.29156 | 76.41663 | 21067 ft | 429 kts | 130° |
| 2026-05-05 10:10 | 39.27197 | 76.44651 | 21615 ft | 432 kts | 130° |
| 2026-05-05 10:11 | 39.25246 | 76.47624 | 22164 ft | 436 kts | 130° |
| 2026-05-05 10:11 | 39.23286 | 76.50621 | 22720 ft | 439 kts | 130° |
| 2026-05-05 10:11 | 39.21311 | 76.53651 | 23261 ft | 443 kts | 130° |
| 2026-05-05 10:11 | 39.19320 | 76.56706 | 23746 ft | 447 kts | 130° |
| 2026-05-05 10:12 | 39.17312 | 76.59790 | 24226 ft | 450 kts | 130° |
| 2026-05-05 10:12 | 39.15295 | 76.62886 | 24711 ft | 453 kts | 130° |
| 2026-05-05 10:12 | 39.13293 | 76.65957 | 25166 ft | 455 kts | 130° |
| 2026-05-05 10:12 | 39.11247 | 76.69093 | 25664 ft | 458 kts | 130° |
| 2026-05-05 10:13 | 39.09196 | 76.72234 | 26132 ft | 460 kts | 130° |
| 2026-05-05 10:13 | 39.07129 | 76.75398 | 26620 ft | 463 kts | 130° |
| 2026-05-05 10:13 | 39.05051 | 76.78574 | 27080 ft | 466 kts | 130° |
| 2026-05-05 10:13 | 39.02959 | 76.81770 | 27561 ft | 468 kts | 131° |
| 2026-05-05 10:14 | 39.00855 | 76.84980 | 28021 ft | 471 kts | 131° |
| 2026-05-05 10:14 | 38.98739 | 76.88205 | 28491 ft | 473 kts | 131° |
| 2026-05-05 10:14 | 38.96619 | 76.91433 | 28921 ft | 476 kts | 131° |
| 2026-05-05 10:14 | 38.94474 | 76.94696 | 29348 ft | 478 kts | 131° |
| 2026-05-05 10:15 | 38.92319 | 76.97969 | 29753 ft | 481 kts | 131° |
| 2026-05-05 10:15 | 38.90152 | 77.01255 | 30116 ft | 483 kts | 131° |
| 2026-05-05 10:15 | 38.87976 | 77.04555 | 30465 ft | 485 kts | 131° |
| 2026-05-05 10:15 | 38.85793 | 77.07861 | 30825 ft | 486 kts | 131° |
| 2026-05-05 10:16 | 38.83602 | 77.11175 | 31174 ft | 488 kts | 131° |
| 2026-05-05 10:16 | 38.81407 | 77.14494 | 31540 ft | 488 kts | 131° |
| 2026-05-05 10:16 | 38.79222 | 77.17792 | 32046 ft | 484 kts | 131° |
| 2026-05-05 10:16 | 38.77044 | 77.21077 | 32561 ft | 481 kts | 131° |
| 2026-05-05 10:17 | 38.74882 | 77.24335 | 33052 ft | 478 kts | 131° |
| 2026-05-05 10:17 | 38.72734 | 77.27569 | 33535 ft | 476 kts | 131° |
| 2026-05-05 10:17 | 38.70593 | 77.30789 | 33974 ft | 473 kts | 131° |
| 2026-05-05 10:17 | 38.68456 | 77.33998 | 34247 ft | 475 kts | 131° |
| 2026-05-05 10:18 | 38.66308 | 77.37222 | 34411 ft | 477 kts | 131° |
| 2026-05-05 10:18 | 38.64211 | 77.40524 | 34624 ft | 479 kts | 127° |
| 2026-05-05 10:18 | 38.62438 | 77.44129 | 34842 ft | 482 kts | 118° |
| 2026-05-05 10:18 | 38.61115 | 77.48090 | 35066 ft | 484 kts | 109° |
| 2026-05-05 10:19 | 38.60307 | 77.52267 | 35275 ft | 486 kts | 100° |
| 2026-05-05 10:19 | 38.60031 | 77.56585 | 35430 ft | 490 kts | 90° |
| 2026-05-05 10:19 | 38.60306 | 77.60938 | 35606 ft | 493 kts | 81° |
| 2026-05-05 10:19 | 38.61045 | 77.65225 | 35801 ft | 494 kts | 76° |
| 2026-05-05 10:20 | 38.61924 | 77.69472 | 36004 ft | 496 kts | 75° |
| 2026-05-05 10:20 | 38.62861 | 77.73721 | 36223 ft | 497 kts | 74° |
| 2026-05-05 10:20 | 38.63814 | 77.77969 | 36431 ft | 498 kts | 74° |
| 2026-05-05 10:20 | 38.64763 | 77.82227 | 36636 ft | 498 kts | 74° |
| 2026-05-05 10:21 | 38.65702 | 77.86501 | 36837 ft | 499 kts | 74° |
| 2026-05-05 10:21 | 38.66630 | 77.90786 | 37033 ft | 500 kts | 74° |
| 2026-05-05 10:21 | 38.67552 | 77.95090 | 37230 ft | 501 kts | 74° |
| 2026-05-05 10:21 | 38.68455 | 77.99338 | 37414 ft | 502 kts | 74° |
| 2026-05-05 10:22 | 38.69369 | 78.03656 | 37595 ft | 503 kts | 74° |
| 2026-05-05 10:22 | 38.70281 | 78.07977 | 37786 ft | 504 kts | 74° |
| 2026-05-05 10:22 | 38.71194 | 78.12307 | 37965 ft | 504 kts | 74° |
| 2026-05-05 10:22 | 38.72108 | 78.16649 | 38145 ft | 505 kts | 74° |
| 2026-05-05 10:23 | 38.73022 | 78.20998 | 38316 ft | 506 kts | 74° |
| 2026-05-05 10:23 | 38.73935 | 78.25350 | 38487 ft | 506 kts | 74° |
| 2026-05-05 10:23 | 38.74847 | 78.29703 | 38623 ft | 507 kts | 74° |
| 2026-05-05 10:23 | 38.75760 | 78.34069 | 38770 ft | 507 kts | 74° |
| 2026-05-05 10:24 | 38.77581 | 78.42808 | 38899 ft | 510 kts | 75° |
| 2026-05-05 10:24 | 38.79405 | 78.51596 | 38886 ft | 509 kts | 75° |
| 2026-05-05 10:25 | 38.81218 | 78.60370 | 38877 ft | 509 kts | 75° |
| 2026-05-05 10:25 | 38.83023 | 78.69144 | 38870 ft | 509 kts | 75° |
| 2026-05-05 10:26 | 38.84822 | 78.77920 | 38865 ft | 509 kts | 75° |
| 2026-05-05 10:26 | 38.86617 | 78.86714 | 38857 ft | 509 kts | 75° |
| 2026-05-05 10:27 | 38.88405 | 78.95508 | 38861 ft | 509 kts | 75° |
| 2026-05-05 10:27 | 38.90186 | 79.04309 | 38848 ft | 510 kts | 75° |
| 2026-05-05 10:28 | 38.91962 | 79.13119 | 38843 ft | 510 kts | 75° |
| 2026-05-05 10:28 | 38.93733 | 79.21942 | 38840 ft | 510 kts | 75° |
| 2026-05-05 10:29 | 38.95500 | 79.30783 | 38836 ft | 511 kts | 75° |
| 2026-05-05 10:29 | 38.97259 | 79.39624 | 38836 ft | 511 kts | 75° |
| 2026-05-05 10:30 | 38.99003 | 79.48428 | 38832 ft | 512 kts | 75° |
| 2026-05-05 10:30 | 39.00753 | 79.57297 | 38832 ft | 512 kts | 75° |
| 2026-05-05 10:31 | 39.02499 | 79.66187 | 38831 ft | 513 kts | 76° |
| 2026-05-05 10:31 | 39.04238 | 79.75075 | 38829 ft | 513 kts | 76° |
| 2026-05-05 10:32 | 39.05972 | 79.83982 | 38830 ft | 513 kts | 76° |
| 2026-05-05 10:32 | 39.07702 | 79.92903 | 38828 ft | 514 kts | 76° |
| 2026-05-05 10:33 | 39.09426 | 80.01836 | 38830 ft | 514 kts | 76° |
| 2026-05-05 10:33 | 39.11144 | 80.10780 | 38834 ft | 515 kts | 76° |
| 2026-05-05 10:34 | 39.12857 | 80.19735 | 38835 ft | 515 kts | 76° |
| 2026-05-05 10:34 | 39.14561 | 80.28694 | 38837 ft | 515 kts | 76° |
| 2026-05-05 10:35 | 39.16261 | 80.37665 | 38836 ft | 516 kts | 76° |
| 2026-05-05 10:35 | 39.17956 | 80.46649 | 38839 ft | 516 kts | 76° |
| 2026-05-05 10:36 | 39.19642 | 80.55631 | 38837 ft | 516 kts | 76° |
| 2026-05-05 10:36 | 39.21323 | 80.64624 | 38832 ft | 516 kts | 76° |
| 2026-05-05 10:37 | 39.22999 | 80.73629 | 38833 ft | 516 kts | 76° |
| 2026-05-05 10:37 | 39.24665 | 80.82629 | 38845 ft | 516 kts | 76° |
| 2026-05-05 10:38 | 39.26326 | 80.91639 | 38838 ft | 516 kts | 76° |
| 2026-05-05 10:38 | 39.27982 | 81.00665 | 38840 ft | 517 kts | 76° |
| 2026-05-05 10:39 | 39.29631 | 81.09698 | 38837 ft | 517 kts | 77° |
| 2026-05-05 10:39 | 39.31276 | 81.18748 | 38837 ft | 518 kts | 77° |
| 2026-05-05 10:40 | 39.32903 | 81.27740 | 38848 ft | 518 kts | 77° |
| 2026-05-05 10:40 | 39.34536 | 81.36814 | 38837 ft | 519 kts | 77° |
| 2026-05-05 10:41 | 39.36163 | 81.45894 | 38842 ft | 519 kts | 77° |
| 2026-05-05 10:41 | 39.37787 | 81.55001 | 38842 ft | 520 kts | 77° |
| 2026-05-05 10:42 | 39.40211 | 81.68677 | 38839 ft | 521 kts | 77° |
| 2026-05-05 10:43 | 39.41820 | 81.77814 | 38839 ft | 521 kts | 77° |
| 2026-05-05 10:43 | 39.43423 | 81.86957 | 38841 ft | 521 kts | 77° |
| 2026-05-05 10:44 | 39.45019 | 81.96106 | 38840 ft | 522 kts | 77° |
| 2026-05-05 10:44 | 39.46610 | 82.05270 | 38839 ft | 522 kts | 77° |
| 2026-05-05 10:45 | 39.48194 | 82.14442 | 38839 ft | 522 kts | 77° |
| 2026-05-05 10:45 | 39.49771 | 82.23620 | 38839 ft | 523 kts | 77° |
| 2026-05-05 10:46 | 39.51341 | 82.32806 | 38839 ft | 523 kts | 77° |
| 2026-05-05 10:46 | 39.52908 | 82.42014 | 38845 ft | 523 kts | 77° |
| 2026-05-05 10:47 | 39.54460 | 82.51200 | 38834 ft | 522 kts | 77° |
| 2026-05-05 10:47 | 39.56007 | 82.60385 | 38834 ft | 521 kts | 77° |
| 2026-05-05 10:48 | 39.57548 | 82.69574 | 38831 ft | 522 kts | 77° |
| 2026-05-05 10:48 | 39.59066 | 82.78683 | 38831 ft | 522 kts | 77° |
| 2026-05-05 10:49 | 39.60594 | 82.87906 | 38826 ft | 522 kts | 77° |
| 2026-05-05 10:49 | 39.62111 | 82.97101 | 38827 ft | 522 kts | 77° |
| 2026-05-05 10:50 | 39.63622 | 83.06310 | 38824 ft | 522 kts | 77° |
| 2026-05-05 10:50 | 39.65125 | 83.15522 | 38824 ft | 522 kts | 77° |
| 2026-05-05 10:51 | 39.66622 | 83.24743 | 38825 ft | 522 kts | 77° |
| 2026-05-05 10:51 | 39.68111 | 83.33968 | 38822 ft | 522 kts | 77° |
| 2026-05-05 10:52 | 39.69595 | 83.43204 | 38820 ft | 523 kts | 77° |
| 2026-05-05 10:52 | 39.71070 | 83.52441 | 38818 ft | 523 kts | 77° |
| 2026-05-05 10:53 | 39.72293 | 83.60131 | 38814 ft | 523 kts | 77° |
| 2026-05-05 10:53 | 39.73757 | 83.69387 | 38813 ft | 523 kts | 77° |
| 2026-05-05 10:54 | 39.75215 | 83.78656 | 38814 ft | 523 kts | 78° |
| 2026-05-05 10:54 | 39.76664 | 83.87916 | 38817 ft | 523 kts | 78° |
| 2026-05-05 10:55 | 39.78108 | 83.97198 | 38813 ft | 523 kts | 78° |
| 2026-05-05 10:55 | 39.79543 | 84.06471 | 38815 ft | 523 kts | 78° |
| 2026-05-05 10:56 | 39.80972 | 84.15760 | 38816 ft | 524 kts | 78° |
| 2026-05-05 10:56 | 39.82393 | 84.25050 | 38816 ft | 524 kts | 78° |
| 2026-05-05 10:57 | 39.83807 | 84.34340 | 38819 ft | 524 kts | 78° |
| 2026-05-05 10:57 | 39.85216 | 84.43655 | 38822 ft | 524 kts | 78° |
| 2026-05-05 10:58 | 39.86616 | 84.52961 | 38820 ft | 524 kts | 78° |
| 2026-05-05 10:58 | 39.88007 | 84.62266 | 38822 ft | 525 kts | 78° |
| 2026-05-05 10:59 | 39.89396 | 84.71610 | 38819 ft | 525 kts | 78° |
| 2026-05-05 10:59 | 39.90778 | 84.80952 | 38819 ft | 525 kts | 78° |
| 2026-05-05 11:00 | 39.92152 | 84.90304 | 38814 ft | 526 kts | 78° |
| 2026-05-05 11:00 | 39.93520 | 84.99663 | 38817 ft | 526 kts | 78° |
| 2026-05-05 11:01 | 39.94880 | 85.09027 | 38819 ft | 527 kts | 79° |
| 2026-05-05 11:01 | 39.96236 | 85.18415 | 38813 ft | 527 kts | 79° |
| 2026-05-05 11:02 | 39.97575 | 85.27744 | 38817 ft | 527 kts | 79° |
| 2026-05-05 11:02 | 39.98917 | 85.37150 | 38820 ft | 528 kts | 79° |
| 2026-05-05 11:03 | 40.00251 | 85.46564 | 38818 ft | 528 kts | 79° |
| 2026-05-05 11:03 | 40.01578 | 85.55979 | 38814 ft | 528 kts | 79° |
| 2026-05-05 11:04 | 40.02900 | 85.65411 | 38818 ft | 528 kts | 79° |
| 2026-05-05 11:04 | 40.04212 | 85.74838 | 38817 ft | 528 kts | 79° |
| 2026-05-05 11:05 | 40.05518 | 85.84281 | 38822 ft | 529 kts | 79° |
| 2026-05-05 11:05 | 40.06817 | 85.93732 | 38816 ft | 529 kts | 79° |
| 2026-05-05 11:06 | 40.07136 | 86.03283 | 38819 ft | 527 kts | 97° |
| 2026-05-05 11:06 | 40.06090 | 86.12743 | 38828 ft | 527 kts | 101° |
| 2026-05-05 11:07 | 40.04795 | 86.22165 | 38830 ft | 527 kts | 102° |
| 2026-05-05 11:07 | 40.03462 | 86.31567 | 38824 ft | 527 kts | 102° |
| 2026-05-05 11:08 | 40.02129 | 86.40981 | 38831 ft | 528 kts | 102° |
| 2026-05-05 11:08 | 40.00814 | 86.50401 | 38830 ft | 528 kts | 102° |
| 2026-05-05 11:09 | 39.99506 | 86.59823 | 38830 ft | 528 kts | 102° |
| 2026-05-05 11:09 | 39.98195 | 86.69233 | 38830 ft | 528 kts | 102° |
| 2026-05-05 11:10 | 39.96874 | 86.78645 | 38831 ft | 528 kts | 102° |
| 2026-05-05 11:10 | 39.95545 | 86.88053 | 38829 ft | 528 kts | 102° |
| 2026-05-05 11:11 | 39.94207 | 86.97460 | 38828 ft | 528 kts | 102° |
| 2026-05-05 11:11 | 39.92864 | 87.06855 | 38827 ft | 527 kts | 102° |
| 2026-05-05 11:12 | 39.91512 | 87.16247 | 38826 ft | 527 kts | 103° |
| 2026-05-05 11:12 | 39.90164 | 87.25560 | 38829 ft | 527 kts | 103° |
| 2026-05-05 11:13 | 39.88800 | 87.34928 | 38828 ft | 526 kts | 103° |
| 2026-05-05 11:13 | 39.87432 | 87.44268 | 38825 ft | 526 kts | 103° |
| 2026-05-05 11:14 | 39.86052 | 87.53634 | 38827 ft | 526 kts | 103° |
| 2026-05-05 11:14 | 39.84668 | 87.62976 | 38825 ft | 525 kts | 103° |
| 2026-05-05 11:15 | 39.83278 | 87.72301 | 38830 ft | 525 kts | 103° |
| 2026-05-05 11:15 | 39.81880 | 87.81622 | 38830 ft | 525 kts | 104° |
| 2026-05-05 11:16 | 39.80475 | 87.90940 | 38831 ft | 525 kts | 104° |
| 2026-05-05 11:16 | 39.79063 | 88.00248 | 38825 ft | 525 kts | 104° |
| 2026-05-05 11:17 | 39.77643 | 88.09549 | 38836 ft | 525 kts | 104° |
| 2026-05-05 11:17 | 39.76215 | 88.18845 | 38822 ft | 525 kts | 104° |
| 2026-05-05 11:18 | 39.74779 | 88.28145 | 38822 ft | 525 kts | 104° |
| 2026-05-05 11:18 | 39.73336 | 88.37437 | 38820 ft | 525 kts | 104° |
| 2026-05-05 11:19 | 39.71886 | 88.46721 | 38832 ft | 525 kts | 105° |
| 2026-05-05 11:19 | 39.70428 | 88.56006 | 38833 ft | 525 kts | 105° |
| 2026-05-05 11:20 | 39.68964 | 88.65278 | 38833 ft | 525 kts | 105° |
| 2026-05-05 11:20 | 39.67488 | 88.74578 | 38838 ft | 525 kts | 105° |
| 2026-05-05 11:21 | 39.66007 | 88.83861 | 38832 ft | 525 kts | 105° |
| 2026-05-05 11:21 | 39.64518 | 88.93139 | 38836 ft | 525 kts | 105° |
| 2026-05-05 11:22 | 39.63024 | 89.02404 | 38832 ft | 524 kts | 105° |
| 2026-05-05 11:22 | 39.61534 | 89.11587 | 38839 ft | 524 kts | 105° |
| 2026-05-05 11:23 | 39.60027 | 89.20831 | 38836 ft | 524 kts | 105° |
| 2026-05-05 11:23 | 39.58515 | 89.30055 | 38843 ft | 523 kts | 105° |
| 2026-05-05 11:24 | 39.56995 | 89.39278 | 38852 ft | 523 kts | 105° |
| 2026-05-05 11:24 | 39.55468 | 89.48498 | 38854 ft | 523 kts | 106° |
| 2026-05-05 11:25 | 39.53937 | 89.57693 | 38857 ft | 522 kts | 106° |
| 2026-05-05 11:25 | 39.52396 | 89.66897 | 38862 ft | 522 kts | 106° |
| 2026-05-05 11:26 | 39.50853 | 89.76071 | 38870 ft | 522 kts | 106° |
| 2026-05-05 11:26 | 39.49302 | 89.85247 | 38878 ft | 521 kts | 106° |
| 2026-05-05 11:27 | 39.47746 | 89.94403 | 38892 ft | 521 kts | 106° |
| 2026-05-05 11:27 | 39.46184 | 90.03544 | 38904 ft | 520 kts | 106° |
| 2026-05-05 11:28 | 39.44616 | 90.12680 | 38913 ft | 520 kts | 106° |
| 2026-05-05 11:28 | 39.43041 | 90.21808 | 38925 ft | 520 kts | 106° |
| 2026-05-05 11:29 | 39.41460 | 90.30927 | 38937 ft | 519 kts | 106° |
| 2026-05-05 11:29 | 39.39873 | 90.40037 | 38951 ft | 519 kts | 106° |
| 2026-05-05 11:30 | 39.38278 | 90.49140 | 38963 ft | 519 kts | 106° |
| 2026-05-05 11:30 | 39.36679 | 90.58230 | 38971 ft | 519 kts | 106° |